Time;durP1;ratioP1;P1;durP2;ratioP2;P2;SDS_P1;SDS_P2;PMS_P1;PMS_P2;Temp;Humidity;BMP_temperature;BMP_pressure;BME280_temperature;BME280_humidity;BME280_pressure;Samples;Min_cycle;Max_cycle;Signal;HPM_P1;HPM_P2
2022/04/10 00:00:50;;;;;;;7.70;2.40;;;3.90;99.90;;;;;;5028718;28;20613;-70
2022/04/10 00:03:15;;;;;;;1.90;1.80;;;3.90;99.90;;;;;;5028706;28;20187;-72
2022/04/10 00:05:41;;;;;;;5.00;2.90;;;3.80;99.90;;;;;;5028481;28;20293;-72
2022/04/10 00:08:07;;;;;;;2.97;2.30;;;3.90;99.90;;;;;;5028606;28;20187;-72
2022/04/10 00:10:33;;;;;;;6.10;2.40;;;3.90;99.90;;;;;;5028536;28;20836;-72
2022/04/10 00:12:58;;;;;;;3.73;2.30;;;3.90;99.90;;;;;;5028514;28;20201;-72
2022/04/10 00:15:24;;;;;;;3.33;1.80;;;4.20;99.90;;;;;;5028474;28;20198;-72
2022/04/10 00:17:49;;;;;;;2.43;1.90;;;3.90;99.90;;;;;;5028611;28;20751;-72
2022/04/10 00:20:15;;;;;;;3.00;2.10;;;3.90;99.90;;;;;;5028498;28;20183;-72
2022/04/10 00:22:46;;;;;;;3.37;2.33;;;4.00;99.90;;;;;;5028484;28;20237;-72
2022/04/10 00:25:13;;;;;;;3.27;2.50;;;4.00;99.90;;;;;;5028134;28;20301;-72
2022/04/10 00:27:40;;;;;;;9.45;4.90;;;4.00;99.90;;;;;;5010554;28;20502;-72
2022/04/10 00:30:08;;;;;;;5.03;3.05;;;4.00;99.90;;;;;;5028249;28;20252;-72
2022/04/10 00:32:33;;;;;;;2.67;2.47;;;3.90;99.90;;;;;;5010762;28;20226;-72
2022/04/10 00:34:59;;;;;;;2.50;2.30;;;3.90;99.90;;;;;;4993986;28;20437;-72
2022/04/10 00:37:25;;;;;;;3.17;1.87;;;3.90;99.90;;;;;;5028359;28;20177;-72
2022/04/10 00:39:51;;;;;;;3.73;2.43;;;3.90;99.90;;;;;;5010271;28;20182;-71
2022/04/10 00:42:17;;;;;;;2.80;2.53;;;3.80;99.90;;;;;;5028263;28;20879;-71
2022/04/10 00:44:42;;;;;;;2.50;2.00;;;3.80;99.90;;;;;;5028532;28;20646;-71
2022/04/10 00:47:10;;;;;;;4.13;2.60;;;3.80;99.90;;;;;;5029113;28;20206;-71
2022/04/10 00:49:36;;;;;;;4.90;2.78;;;3.70;99.90;;;;;;5030853;28;20182;-70
2022/04/10 00:52:04;;;;;;;3.47;2.60;;;3.60;99.90;;;;;;5015057;28;20647;-70
2022/04/10 00:54:30;;;;;;;2.60;2.40;;;3.70;99.90;;;;;;5033138;28;20198;-70
2022/04/10 00:56:57;;;;;;;8.50;3.20;;;3.60;99.90;;;;;;5033019;28;20775;-70
2022/04/10 00:59:23;;;;;;;4.82;2.47;;;3.60;99.90;;;;;;5032811;28;20197;-70
2022/04/10 01:01:49;;;;;;;6.83;2.87;;;3.50;99.90;;;;;;5014894;28;20214;-70
2022/04/10 01:04:16;;;;;;;7.18;2.80;;;3.50;99.90;;;;;;5032906;28;20833;-70
2022/04/10 01:06:43;;;;;;;2.60;2.40;;;3.40;99.90;;;;;;5032650;28;20286;-69
2022/04/10 01:09:09;;;;;;;2.55;2.20;;;3.40;99.90;;;;;;5032572;28;20217;-70
2022/04/10 01:11:35;;;;;;;3.92;3.00;;;3.40;99.90;;;;;;5032354;28;20186;-70
2022/04/10 01:14:02;;;;;;;5.72;2.30;;;3.40;99.90;;;;;;5032332;28;20179;-70
2022/04/10 01:16:28;;;;;;;5.93;3.10;;;3.50;99.90;;;;;;5032093;28;20205;-70
2022/04/10 01:18:55;;;;;;;4.45;2.80;;;3.50;99.90;;;;;;5032239;28;20187;-70
2022/04/10 01:21:27;;;;;;;3.15;2.40;;;3.50;99.90;;;;;;5031949;28;20206;-70
2022/04/10 01:23:55;;;;;;;3.72;2.70;;;3.50;99.90;;;;;;5034902;28;20190;-69
2022/04/10 01:26:27;;;;;;;2.77;2.60;;;3.50;99.90;;;;;;5047285;28;20551;-69
2022/04/10 01:29:08;;;;;;;4.20;2.80;;;3.50;99.90;;;;;;5050255;28;20811;-69
2022/04/10 01:31:40;;;;;;;5.50;2.73;;;3.50;99.90;;;;;;5052109;28;20400;-69
2022/04/10 01:34:08;;;;;;;3.08;2.28;;;3.50;99.90;;;;;;5054855;28;20430;-69
2022/04/10 01:36:36;;;;;;;5.57;2.70;;;3.50;99.90;;;;;;5053687;28;20203;-70
2022/04/10 01:39:04;;;;;;;3.77;2.50;;;3.50;99.90;;;;;;5032998;28;20174;-70
2022/04/10 01:41:30;;;;;;;2.63;2.42;;;3.60;99.90;;;;;;5032287;28;20465;-70
2022/04/10 01:43:58;;;;;;;3.03;2.40;;;3.70;99.90;;;;;;5013620;28;20535;-71
2022/04/10 01:46:26;;;;;;;7.17;3.23;;;3.60;99.90;;;;;;5031263;28;20464;-71
2022/04/10 01:48:52;;;;;;;5.07;3.10;;;3.60;99.90;;;;;;5031284;28;20877;-71
2022/04/10 01:51:18;;;;;;;6.50;2.70;;;3.60;99.90;;;;;;5031168;28;20215;-71
2022/04/10 01:53:44;;;;;;;3.00;2.50;;;3.60;99.90;;;;;;5031003;28;20193;-71
2022/04/10 01:56:10;;;;;;;4.40;2.80;;;3.70;99.90;;;;;;5030823;28;20922;-71
2022/04/10 01:58:44;;;;;;;2.58;2.38;;;3.60;99.90;;;;;;5030922;28;20428;-71
2022/04/10 02:01:11;;;;;;;3.25;2.60;;;3.60;99.90;;;;;;4995763;28;20210;-70
2022/04/10 02:03:37;;;;;;;3.70;3.00;;;3.60;99.90;;;;;;5030869;28;20175;-70
2022/04/10 02:06:04;;;;;;;8.40;2.60;;;3.60;99.90;;;;;;5030820;28;20822;-69
2022/04/10 02:08:31;;;;;;;4.88;3.33;;;3.60;99.90;;;;;;5030908;28;20502;-69
2022/04/10 02:10:57;;;;;;;6.97;2.92;;;3.60;99.90;;;;;;5030824;28;20236;-70
2022/04/10 02:13:23;;;;;;;3.47;2.80;;;3.70;99.90;;;;;;5030708;28;20217;-69
2022/04/10 02:15:50;;;;;;;5.20;4.07;;;3.80;99.90;;;;;;5030590;28;20696;-69
2022/04/10 02:18:15;;;;;;;2.63;2.40;;;3.70;99.90;;;;;;5030712;28;20199;-70
2022/04/10 02:20:41;;;;;;;4.60;2.60;;;3.60;99.90;;;;;;5030583;28;20229;-70
2022/04/10 02:23:07;;;;;;;4.47;3.00;;;3.70;99.90;;;;;;5012817;28;20992;-70
2022/04/10 02:25:33;;;;;;;3.57;2.77;;;3.60;99.90;;;;;;5030361;28;20462;-70
2022/04/10 02:27:58;;;;;;;2.97;2.67;;;3.60;99.90;;;;;;5030523;28;20188;-70
2022/04/10 02:30:24;;;;;;;3.10;2.80;;;3.50;99.90;;;;;;5012545;28;20178;-70
2022/04/10 02:32:50;;;;;;;2.80;2.60;;;3.40;99.90;;;;;;5030318;28;20261;-70
2022/04/10 02:35:15;;;;;;;7.10;3.10;;;3.50;99.90;;;;;;5030467;28;20201;-69
2022/04/10 02:37:45;;;;;;;4.03;2.80;;;3.50;99.90;;;;;;5030389;28;20840;-70
2022/04/10 02:40:14;;;;;;;5.88;2.97;;;3.50;99.90;;;;;;5030112;28;20185;-70
2022/04/10 02:42:40;;;;;;;10.15;3.00;;;3.50;99.90;;;;;;5030146;28;20849;-70
2022/04/10 02:45:06;;;;;;;4.10;2.93;;;3.50;99.90;;;;;;5030040;28;20209;-71
2022/04/10 02:47:32;;;;;;;4.40;3.00;;;3.50;99.90;;;;;;5030220;28;20417;-71
2022/04/10 02:49:57;;;;;;;5.33;3.00;;;3.50;99.90;;;;;;5030055;28;20183;-71
2022/04/10 02:52:23;;;;;;;3.40;3.10;;;3.40;99.90;;;;;;5030054;28;20297;-71
2022/04/10 02:54:49;;;;;;;4.00;2.53;;;3.50;99.90;;;;;;5029851;28;20236;-70
2022/04/10 02:57:15;;;;;;;6.00;3.00;;;3.60;99.90;;;;;;5029877;28;20189;-70
2022/04/10 02:59:41;;;;;;;7.50;3.10;;;3.50;99.90;;;;;;5029718;28;20838;-71
2022/04/10 03:02:06;;;;;;;3.20;2.93;;;3.50;99.90;;;;;;5030108;28;20967;-70
2022/04/10 03:04:32;;;;;;;11.00;3.43;;;3.40;99.90;;;;;;5029716;28;20622;-70
2022/04/10 03:06:58;;;;;;;4.20;3.27;;;3.50;99.90;;;;;;5011712;28;20214;-70
2022/04/10 03:09:23;;;;;;;4.40;3.70;;;3.50;99.90;;;;;;5029736;28;20174;-70
2022/04/10 03:11:49;;;;;;;4.60;3.23;;;3.40;99.90;;;;;;5029569;28;20706;-70
2022/04/10 03:14:15;;;;;;;4.67;3.47;;;3.40;99.90;;;;;;5011643;28;20264;-70
2022/04/10 03:16:42;;;;;;;4.87;3.00;;;3.40;99.90;;;;;;5029421;28;20808;-70
2022/04/10 03:19:08;;;;;;;4.55;2.70;;;3.40;99.90;;;;;;5029561;28;20501;-70
2022/04/10 03:21:34;;;;;;;6.00;2.53;;;3.40;99.90;;;;;;5029399;28;20230;-70
2022/04/10 03:24:01;;;;;;;3.30;2.77;;;3.40;99.90;;;;;;5029235;28;20186;-69
2022/04/10 03:26:27;;;;;;;5.00;3.03;;;3.40;99.90;;;;;;5011167;28;20198;-70
2022/04/10 03:28:53;;;;;;;4.05;3.20;;;3.30;99.90;;;;;;5029122;28;20188;-70
2022/04/10 03:31:20;;;;;;;2.57;2.37;;;3.20;99.90;;;;;;5029156;28;20192;-72
2022/04/10 03:33:46;;;;;;;6.38;2.92;;;3.30;99.90;;;;;;5029241;28;20700;-72
2022/04/10 03:36:12;;;;;;;4.13;3.30;;;3.30;99.90;;;;;;5029218;28;20233;-72
2022/04/10 03:38:38;;;;;;;3.37;3.07;;;3.20;99.90;;;;;;5029036;28;20764;-70
2022/04/10 03:41:03;;;;;;;3.00;2.73;;;3.20;99.90;;;;;;5029428;28;20722;-70
2022/04/10 03:43:29;;;;;;;4.30;3.90;;;3.20;99.90;;;;;;5028861;28;20714;-70
2022/04/10 03:45:55;;;;;;;2.73;2.53;;;3.20;99.90;;;;;;5029194;28;20212;-71
2022/04/10 03:48:20;;;;;;;4.60;3.33;;;3.20;99.90;;;;;;5029115;28;20187;-70
2022/04/10 03:50:46;;;;;;;2.90;2.63;;;3.20;99.90;;;;;;5029044;28;20325;-70
2022/04/10 03:53:12;;;;;;;4.23;2.83;;;3.10;99.90;;;;;;5028916;28;20194;-71
2022/04/10 03:55:37;;;;;;;6.30;3.47;;;3.10;99.90;;;;;;5028729;28;20206;-70
2022/04/10 03:58:03;;;;;;;4.47;3.10;;;3.00;99.90;;;;;;5028682;28;20192;-70
2022/04/10 04:00:28;;;;;;;4.90;3.40;;;3.00;99.90;;;;;;5028654;28;20660;-70
2022/04/10 04:02:54;;;;;;;3.70;3.30;;;3.00;99.90;;;;;;5028710;28;20279;-70
2022/04/10 04:05:20;;;;;;;3.77;3.40;;;3.00;99.90;;;;;;5028547;28;20546;-71
2022/04/10 04:07:45;;;;;;;4.93;3.00;;;3.00;99.90;;;;;;5028980;28;20178;-71
2022/04/10 04:10:11;;;;;;;3.63;3.20;;;3.00;99.90;;;;;;5028501;28;20177;-69
2022/04/10 04:12:37;;;;;;;4.33;2.90;;;3.10;99.90;;;;;;5010726;28;20185;-69
2022/04/10 04:15:04;;;;;;;3.20;3.00;;;3.00;99.90;;;;;;5010562;28;20654;-70
2022/04/10 04:17:29;;;;;;;4.90;3.22;;;3.00;99.90;;;;;;5028618;28;20205;-69
2022/04/10 04:19:56;;;;;;;7.50;3.40;;;2.90;99.90;;;;;;5010460;28;20604;-69
2022/04/10 04:22:21;;;;;;;4.22;3.47;;;2.90;99.90;;;;;;5028253;28;20221;-69
2022/04/10 04:24:47;;;;;;;3.53;3.03;;;2.90;99.90;;;;;;5027624;28;20571;-69
2022/04/10 04:27:13;;;;;;;8.77;3.00;;;2.90;99.90;;;;;;5028362;28;20272;-69
2022/04/10 04:29:39;;;;;;;4.53;3.10;;;2.90;99.90;;;;;;5028273;28;20714;-69
2022/04/10 04:32:06;;;;;;;6.77;3.10;;;2.80;99.90;;;;;;5028302;28;20420;-69
2022/04/10 04:34:31;;;;;;;10.43;2.95;;;2.80;99.90;;;;;;5010673;28;20225;-69
2022/04/10 04:36:57;;;;;;;6.23;3.93;;;2.80;99.90;;;;;;5028148;28;20237;-69
2022/04/10 04:39:23;;;;;;;6.90;3.37;;;2.70;99.90;;;;;;5028272;28;20197;-69
2022/04/10 04:41:48;;;;;;;2.97;2.70;;;2.80;99.90;;;;;;5010285;28;20206;-69
2022/04/10 04:44:14;;;;;;;4.47;3.37;;;2.80;99.90;;;;;;5028177;28;20189;-69
2022/04/10 04:46:40;;;;;;;4.83;3.00;;;2.80;99.90;;;;;;5028106;28;20444;-69
2022/04/10 04:49:06;;;;;;;9.60;4.33;;;2.70;99.90;;;;;;5028283;28;20946;-69
2022/04/10 04:51:34;;;;;;;5.13;3.40;;;2.80;99.90;;;;;;5028314;28;20422;-69
2022/04/10 04:54:02;;;;;;;5.53;3.60;;;2.80;99.90;;;;;;5028118;28;20675;-69
2022/04/10 04:56:27;;;;;;;4.88;3.28;;;2.70;99.90;;;;;;5028130;28;20297;-69
2022/04/10 04:58:53;;;;;;;6.27;4.30;;;2.80;99.90;;;;;;5010357;28;20707;-69
2022/04/10 05:01:19;;;;;;;3.67;3.23;;;2.80;99.90;;;;;;5028104;28;20332;-69
2022/04/10 05:03:44;;;;;;;9.43;4.10;;;2.80;99.90;;;;;;5028061;28;20206;-71
2022/04/10 05:06:10;;;;;;;6.50;3.33;;;2.90;99.90;;;;;;5028162;28;20201;-75
2022/04/10 05:08:36;;;;;;;5.53;3.70;;;2.90;99.90;;;;;;5028336;28;20722;-74
2022/04/10 05:11:02;;;;;;;6.07;3.67;;;2.90;99.90;;;;;;5028021;28;20910;-75
2022/04/10 05:13:28;;;;;;;5.05;3.80;;;2.90;99.90;;;;;;5010096;28;20191;-74
2022/04/10 05:15:54;;;;;;;9.57;3.90;;;2.90;99.90;;;;;;5028963;28;20573;-74
2022/04/10 05:18:19;;;;;;;4.15;3.75;;;2.90;99.90;;;;;;5028966;28;20232;-74
2022/04/10 05:20:48;;;;;;;5.03;3.80;;;3.00;99.90;;;;;;5028156;28;20250;-74
2022/04/10 05:23:18;;;;;;;7.50;4.10;;;3.00;99.90;;;;;;5028245;28;20183;-73
2022/04/10 05:25:44;;;;;;;8.02;3.63;;;3.00;99.90;;;;;;5027737;28;20240;-73
2022/04/10 05:28:10;;;;;;;4.50;4.07;;;3.00;99.90;;;;;;5028046;28;20680;-73
2022/04/10 05:30:36;;;;;;;6.47;4.07;;;3.10;99.90;;;;;;5010006;28;20194;-73
2022/04/10 05:33:01;;;;;;;5.67;3.90;;;3.10;99.90;;;;;;5027761;28;20432;-73
2022/04/10 05:35:27;;;;;;;4.27;3.73;;;3.20;99.90;;;;;;5027779;28;20210;-73
2022/04/10 05:37:53;;;;;;;5.50;3.53;;;3.30;99.90;;;;;;5031208;28;20318;-76
2022/04/10 05:40:18;;;;;;;4.50;3.57;;;3.40;99.90;;;;;;4997020;28;20543;-74
2022/04/10 05:42:48;;;;;;;4.33;3.67;;;3.40;99.90;;;;;;5031407;28;20205;-74
2022/04/10 05:45:14;;;;;;;4.15;3.75;;;3.50;99.90;;;;;;5031484;28;20746;-73
2022/04/10 05:47:41;;;;;;;4.50;4.00;;;3.60;99.90;;;;;;4997265;28;20193;-75
2022/04/10 05:50:08;;;;;;;6.43;3.97;;;3.70;99.90;;;;;;5031153;28;20444;-75
2022/04/10 05:52:45;;;;;;;4.30;3.85;;;3.80;99.90;;;;;;5013274;28;20264;-75
2022/04/10 05:55:13;;;;;;;4.55;3.78;;;3.80;99.90;;;;;;5013332;28;20211;-75
2022/04/10 05:57:39;;;;;;;3.35;3.05;;;3.80;99.90;;;;;;5032507;28;20554;-75
2022/04/10 06:00:08;;;;;;;6.93;3.28;;;3.90;99.90;;;;;;5031651;28;20184;-75
2022/04/10 06:02:34;;;;;;;5.97;4.40;;;4.10;99.90;;;;;;5013505;28;20228;-75
2022/04/10 06:04:59;;;;;;;4.68;4.03;;;4.10;99.90;;;;;;5031144;28;20814;-75
2022/04/10 06:07:25;;;;;;;6.07;4.00;;;4.10;99.90;;;;;;5030863;28;20210;-75
2022/04/10 06:09:51;;;;;;;4.28;3.92;;;4.10;99.90;;;;;;5012936;28;20206;-74
2022/04/10 06:12:17;;;;;;;4.90;4.17;;;4.10;99.90;;;;;;5030636;28;20531;-75
2022/04/10 06:14:43;;;;;;;4.03;3.60;;;4.20;99.90;;;;;;5029919;28;20198;-75
2022/04/10 06:17:08;;;;;;;5.80;4.50;;;4.20;99.90;;;;;;5029997;28;20214;-75
2022/04/10 06:19:34;;;;;;;4.10;3.57;;;4.30;99.90;;;;;;5029862;28;20918;-75
2022/04/10 06:22:00;;;;;;;4.83;3.70;;;4.40;99.90;;;;;;5011245;28;20210;-75
2022/04/10 06:24:27;;;;;;;3.90;3.50;;;4.50;99.90;;;;;;5011077;28;20803;-75
2022/04/10 06:26:53;;;;;;;5.80;3.53;;;4.80;99.90;;;;;;5029138;28;20620;-75
2022/04/10 06:29:19;;;;;;;3.13;2.80;;;5.00;99.90;;;;;;5029226;28;20423;-75
2022/04/10 06:31:45;;;;;;;5.50;3.70;;;5.30;99.90;;;;;;4995115;28;20237;-75
2022/04/10 06:34:12;;;;;;;5.50;3.30;;;5.10;99.90;;;;;;5029727;28;20188;-75
2022/04/10 06:36:38;;;;;;;3.60;3.20;;;5.20;99.90;;;;;;5029203;28;20297;-75
2022/04/10 06:39:04;;;;;;;3.50;3.20;;;5.10;99.90;;;;;;5011048;28;21242;-75
2022/04/10 06:41:30;;;;;;;6.50;3.97;;;5.30;99.90;;;;;;5010894;28;20309;-75
2022/04/10 06:43:56;;;;;;;7.80;4.03;;;5.30;99.90;;;;;;5028967;28;20321;-75
2022/04/10 06:46:23;;;;;;;6.77;4.40;;;5.40;99.90;;;;;;5010818;28;20638;-75
2022/04/10 06:48:49;;;;;;;8.23;3.63;;;5.50;99.90;;;;;;5028890;28;20501;-75
2022/04/10 06:51:16;;;;;;;5.60;3.80;;;5.50;99.90;;;;;;5028698;28;20230;-75
2022/04/10 06:53:42;;;;;;;9.50;3.70;;;5.50;99.90;;;;;;5028969;28;20433;-75
2022/04/10 06:56:08;;;;;;;5.23;3.40;;;5.60;99.90;;;;;;5028794;28;20592;-75
2022/04/10 06:58:34;;;;;;;5.40;3.87;;;5.40;99.90;;;;;;5028771;28;20517;-75
2022/04/10 07:01:00;;;;;;;3.60;3.23;;;5.30;99.90;;;;;;5028725;28;20693;-75
2022/04/10 07:03:25;;;;;;;5.07;3.87;;;5.50;99.90;;;;;;5028786;28;20269;-75
2022/04/10 07:05:51;;;;;;;7.23;3.87;;;5.60;99.90;;;;;;5028596;28;20906;-75
2022/04/10 07:08:17;;;;;;;8.20;3.67;;;5.70;99.90;;;;;;5028691;28;20944;-75
2022/04/10 07:10:43;;;;;;;6.83;3.20;;;5.80;99.90;;;;;;5028828;28;20520;-75
2022/04/10 07:13:09;;;;;;;4.37;3.60;;;6.00;99.90;;;;;;5028780;28;20195;-75
2022/04/10 07:15:35;;;;;;;4.30;3.70;;;6.00;99.90;;;;;;5010983;28;20779;-74
2022/04/10 07:18:00;;;;;;;7.23;3.30;;;6.20;99.90;;;;;;5010983;28;20442;-75
2022/04/10 07:20:26;;;;;;;4.43;3.40;;;6.30;99.90;;;;;;5011234;28;20184;-75
2022/04/10 07:25:36;;;;;;;5.57;3.53;;;7.00;99.90;;;;;;5028679;28;20470;-75
2022/04/10 07:28:03;;;;;;;3.97;3.50;;;7.20;99.90;;;;;;5011070;28;20426;-75
2022/04/10 07:30:29;;;;;;;4.37;3.33;;;7.60;99.90;;;;;;5028687;28;20195;-75
2022/04/10 07:32:57;;;;;;;6.20;3.03;;;7.80;99.90;;;;;;5028331;28;20783;-75
2022/04/10 07:35:24;;;;;;;6.57;3.50;;;8.10;99.90;;;;;;4994400;28;21004;-75
2022/04/10 07:37:50;;;;;;;4.50;3.60;;;8.20;99.90;;;;;;5028215;28;20419;-75
2022/04/10 07:40:16;;;;;;;4.40;3.57;;;7.80;99.90;;;;;;5028119;28;20492;-75
2022/04/10 07:42:45;;;;;;;5.20;3.47;;;8.00;99.90;;;;;;5027747;28;20474;-75
2022/04/10 07:47:25;;;;;;;7.27;4.00;;;7.90;99.90;;;;;;5028267;28;20444;-75
2022/04/10 07:48:01;;;;;;;8.97;3.73;;;7.90;99.90;;;;;;5013448;28;20444;-76
2022/04/10 07:50:28;;;;;;;5.53;3.63;;;8.10;99.90;;;;;;5028519;28;20526;-76
2022/04/10 07:52:54;;;;;;;5.10;3.83;;;8.20;99.90;;;;;;5029052;28;20191;-77
2022/04/10 07:55:21;;;;;;;5.47;3.93;;;8.50;99.90;;;;;;5010691;28;20995;-75
2022/04/10 07:57:51;;;;;;;3.60;3.30;;;8.40;99.90;;;;;;5028351;28;20740;-75
2022/04/10 08:00:17;;;;;;;3.97;3.60;;;8.40;99.90;;;;;;5027464;28;20434;-74
2022/04/10 08:02:48;;;;;;;6.37;3.47;;;8.50;99.90;;;;;;5028002;28;20517;-74
2022/04/10 08:05:19;;;;;;;7.13;3.90;;;9.00;99.90;;;;;;5010353;28;20496;-75
2022/04/10 08:07:48;;;;;;;4.60;3.70;;;9.40;99.10;;;;;;5010587;28;20455;-74
2022/04/10 08:10:14;;;;;;;7.60;4.20;;;9.30;98.90;;;;;;5010529;28;20425;-74
2022/04/10 08:12:41;;;;;;;5.83;3.90;;;9.20;98.80;;;;;;5010555;28;20428;-74
2022/04/10 08:15:08;;;;;;;5.27;3.73;;;9.20;99.60;;;;;;5029604;28;20454;-74
2022/04/10 08:17:34;;;;;;;10.50;4.00;;;9.00;98.20;;;;;;5030226;28;20762;-73
2022/04/10 08:20:03;;;;;;;9.20;4.00;;;8.90;99.40;;;;;;5029729;28;20432;-74
2022/04/10 08:22:30;;;;;;;5.63;3.63;;;8.90;99.90;;;;;;5011786;28;20248;-74
2022/04/10 08:25:04;;;;;;;5.93;3.50;;;9.00;98.10;;;;;;5029519;28;20499;-75
2022/04/10 08:27:30;;;;;;;4.43;3.30;;;9.30;98.50;;;;;;5028994;28;20411;-74
2022/04/10 08:29:56;;;;;;;8.10;3.33;;;9.50;98.00;;;;;;5029315;28;20423;-74
2022/04/10 08:32:22;;;;;;;4.20;3.10;;;9.70;98.40;;;;;;5011971;28;20523;-72
2022/04/10 08:34:47;;;;;;;8.20;3.37;;;9.80;97.20;;;;;;5029530;28;21004;-74
2022/04/10 08:37:13;;;;;;;6.10;3.90;;;10.00;96.10;;;;;;5011756;28;20291;-74
2022/04/10 08:39:39;;;;;;;3.27;3.00;;;10.20;96.70;;;;;;5029445;28;20192;-74
2022/04/10 08:42:05;;;;;;;6.33;3.20;;;10.50;95.30;;;;;;5011559;28;20221;-73
2022/04/10 08:44:32;;;;;;;7.63;3.47;;;11.10;95.20;;;;;;5029258;28;20189;-74
2022/04/10 08:46:59;;;;;;;4.80;2.90;;;11.30;94.60;;;;;;5029508;28;20439;-74
2022/04/10 08:49:26;;;;;;;4.13;3.40;;;11.40;94.20;;;;;;5011914;28;20821;-74
2022/04/10 08:51:53;;;;;;;6.97;3.63;;;11.40;90.70;;;;;;5011878;28;20519;-74
2022/04/10 08:54:20;;;;;;;3.73;3.40;;;11.50;92.60;;;;;;5029593;28;20500;-73
2022/04/10 08:56:46;;;;;;;6.63;3.40;;;11.20;91.10;;;;;;5029515;28;20445;-74
2022/04/10 08:59:12;;;;;;;9.10;4.17;;;11.50;90.80;;;;;;5029673;28;20411;-74
2022/04/10 09:01:37;;;;;;;4.47;3.07;;;11.40;91.60;;;;;;5012545;28;20478;-74
2022/04/10 09:04:04;;;;;;;3.90;3.07;;;11.70;89.90;;;;;;5030643;28;20409;-75
2022/04/10 09:06:30;;;;;;;8.10;3.50;;;11.70;90.00;;;;;;5028727;28;20201;-74
2022/04/10 09:09:12;;;;;;;6.03;3.20;;;11.90;87.70;;;;;;5028463;28;20428;-75
2022/04/10 09:11:39;;;;;;;3.17;2.87;;;12.20;88.30;;;;;;5031692;28;20178;-75
2022/04/10 09:14:06;;;;;;;6.90;2.90;;;12.70;85.70;;;;;;5032231;28;20929;-75
2022/04/10 09:16:32;;;;;;;8.60;3.53;;;12.50;86.90;;;;;;5014001;28;20452;-74
2022/04/10 09:19:08;;;;;;;5.30;3.10;;;12.60;87.50;;;;;;5031978;28;20428;-74
2022/04/10 09:21:39;;;;;;;5.30;3.57;;;12.50;84.50;;;;;;5032335;28;20452;-75
2022/04/10 09:24:05;;;;;;;7.13;2.43;;;12.20;84.50;;;;;;5032052;28;20416;-74
2022/04/10 09:26:51;;;;;;;3.20;2.90;;;12.20;84.20;;;;;;5031899;28;20585;-75
2022/04/10 09:29:21;;;;;;;5.83;2.60;;;12.20;82.90;;;;;;5031634;28;20427;-75
2022/04/10 09:31:48;;;;;;;7.13;3.37;;;12.80;76.30;;;;;;5013751;28;20451;-75
2022/04/10 09:34:16;;;;;;;4.30;3.60;;;12.80;80.30;;;;;;5031755;28;20971;-75
2022/04/10 09:36:44;;;;;;;6.10;2.87;;;12.70;77.40;;;;;;5031416;28;20521;-74
2022/04/10 09:39:31;;;;;;;4.70;3.03;;;12.00;83.00;;;;;;5031590;28;20446;-75
2022/04/10 09:42:05;;;;;;;6.37;2.80;;;11.50;82.60;;;;;;5013714;28;20468;-74
2022/04/10 09:44:35;;;;;;;5.83;3.83;;;10.50;84.00;;;;;;5031692;28;20443;-74
2022/04/10 09:47:08;;;;;;;6.00;3.27;;;10.10;88.30;;;;;;5013789;28;20979;-74
2022/04/10 09:49:39;;;;;;;10.57;3.47;;;9.90;92.80;;;;;;4998711;28;20910;-74
2022/04/10 09:52:15;;;;;;;4.00;2.67;;;9.80;93.50;;;;;;5014045;28;20454;-74
2022/04/10 09:54:46;;;;;;;6.50;3.07;;;9.80;91.50;;;;;;5031867;28;20818;-74
2022/04/10 09:57:14;;;;;;;4.40;3.30;;;9.80;91.40;;;;;;5032127;28;21042;-74
2022/04/10 09:59:51;;;;;;;7.50;3.37;;;9.50;93.10;;;;;;4997985;28;20459;-75
2022/04/10 10:02:25;;;;;;;7.13;3.37;;;9.20;92.30;;;;;;5032112;28;20462;-74
2022/04/10 10:04:54;;;;;;;3.47;2.70;;;9.10;94.40;;;;;;5014059;28;20422;-74
2022/04/10 10:07:20;;;;;;;4.67;2.70;;;9.00;93.20;;;;;;5031962;28;20427;-74
2022/04/10 10:09:48;;;;;;;6.43;2.60;;;8.90;95.20;;;;;;4997883;28;20420;-74
2022/04/10 10:12:17;;;;;;;7.13;2.90;;;8.80;93.10;;;;;;5013422;28;20952;-74
2022/04/10 10:14:43;;;;;;;5.37;2.93;;;8.40;93.30;;;;;;5014203;28;20434;-73
2022/04/10 10:17:10;;;;;;;6.03;2.53;;;8.00;94.50;;;;;;5031201;28;20434;-75
2022/04/10 10:19:38;;;;;;;3.60;2.40;;;7.70;99.90;;;;;;5031112;28;20419;-74
2022/04/10 10:22:06;;;;;;;2.70;2.33;;;7.20;99.90;;;;;;5030555;28;20471;-74
2022/04/10 10:24:53;;;;;;;6.70;3.30;;;6.90;99.90;;;;;;5031052;28;20958;-74
2022/04/10 10:27:44;;;;;;;8.23;3.17;;;6.80;99.90;;;;;;5031287;28;20427;-74
2022/04/10 10:30:29;;;;;;;4.13;2.30;;;7.00;99.90;;;;;;5001835;28;20506;-74
2022/04/10 10:33:12;;;;;;;6.83;3.87;;;6.90;99.90;;;;;;5036482;28;20416;-74
2022/04/10 10:35:44;;;;;;;3.10;2.80;;;8.40;99.90;;;;;;5018655;28;20447;-74
2022/04/10 10:38:23;;;;;;;2.90;2.20;;;9.40;99.90;;;;;;5036207;28;20813;-75
2022/04/10 10:41:12;;;;;;;3.20;2.60;;;10.00;98.70;;;;;;5035139;28;20458;-74
2022/04/10 10:43:38;;;;;;;4.47;2.23;;;10.80;95.90;;;;;;5024158;28;20428;-74
2022/04/10 10:46:26;;;;;;;4.37;2.67;;;11.00;94.70;;;;;;5033773;28;20971;-74
2022/04/10 10:49:14;;;;;;;3.00;2.07;;;11.70;93.60;;;;;;5031738;28;20423;-74
2022/04/10 10:51:44;;;;;;;4.53;2.20;;;12.40;93.30;;;;;;5030633;28;20453;-74
2022/04/10 10:54:29;;;;;;;4.30;2.47;;;12.80;91.20;;;;;;5012640;28;20411;-75
2022/04/10 10:56:55;;;;;;;2.23;1.80;;;13.20;90.80;;;;;;5030169;28;20536;-74
2022/04/10 10:59:33;;;;;;;6.20;2.37;;;13.70;80.80;;;;;;5030136;28;20853;-75
2022/04/10 11:02:02;;;;;;;7.90;2.20;;;14.00;81.80;;;;;;5029941;28;20829;-74
2022/04/10 11:04:32;;;;;;;4.20;2.63;;;13.90;81.60;;;;;;5029810;28;20926;-74
2022/04/10 11:07:25;;;;;;;11.07;2.90;;;12.30;84.10;;;;;;5011960;28;20458;-74
2022/04/10 11:10:08;;;;;;;5.13;3.27;;;11.10;89.80;;;;;;5006184;28;20420;-74
2022/04/10 11:12:35;;;;;;;8.30;4.10;;;10.10;92.20;;;;;;5029876;28;20454;-74
2022/04/10 11:15:17;;;;;;;5.60;3.57;;;9.30;97.90;;;;;;5029943;28;20437;-74
2022/04/10 11:17:43;;;;;;;4.73;3.50;;;8.80;99.90;;;;;;5029757;28;20470;-74
2022/04/10 11:20:12;;;;;;;5.90;3.67;;;8.50;99.90;;;;;;5011851;28;20415;-74
2022/04/10 11:22:46;;;;;;;7.60;3.80;;;8.30;99.90;;;;;;5029473;28;20209;-74
2022/04/10 11:25:12;;;;;;;7.00;3.30;;;8.20;99.90;;;;;;5029431;28;20459;-74
2022/04/10 11:27:43;;;;;;;4.00;3.30;;;8.20;99.90;;;;;;5029441;28;20430;-74
2022/04/10 11:30:12;;;;;;;3.00;2.80;;;8.50;99.90;;;;;;5011386;28;20430;-74
2022/04/10 11:33:07;;;;;;;2.60;2.37;;;8.80;99.90;;;;;;5029411;28;20474;-74
2022/04/10 11:35:35;;;;;;;3.37;2.83;;;8.80;99.90;;;;;;5009605;28;20960;-74
2022/04/10 11:38:22;;;;;;;7.57;3.23;;;8.80;98.00;;;;;;5029273;28;20415;-74
2022/04/10 11:40:51;;;;;;;3.17;2.87;;;9.10;99.90;;;;;;5028888;28;20441;-74
2022/04/10 11:43:19;;;;;;;3.77;1.67;;;9.80;99.80;;;;;;5029277;28;20485;-74
2022/04/10 11:45:48;;;;;;;4.20;1.70;;;10.30;96.80;;;;;;5029085;28;20925;-74
2022/04/10 11:48:14;;;;;;;3.57;2.20;;;10.90;93.10;;;;;;5011053;28;20504;-74
2022/04/10 11:50:39;;;;;;;3.00;2.40;;;11.60;92.50;;;;;;5028589;28;21347;-74
2022/04/10 11:53:13;;;;;;;2.47;2.13;;;12.40;90.30;;;;;;5028520;28;20415;-74
2022/04/10 11:55:45;;;;;;;4.00;2.60;;;12.90;84.90;;;;;;5028517;28;20215;-74
2022/04/10 11:58:15;;;;;;;3.30;1.97;;;13.30;77.90;;;;;;5028003;28;20418;-74
2022/04/10 12:00:50;;;;;;;5.60;2.30;;;13.60;81.30;;;;;;5010797;28;20950;-74
2022/04/10 12:03:25;;;;;;;3.20;1.80;;;13.50;74.40;;;;;;5027896;28;20509;-74
2022/04/10 12:05:52;;;;;;;6.13;2.93;;;13.80;79.80;;;;;;5027900;28;20452;-76
2022/04/10 12:08:19;;;;;;;3.00;2.10;;;14.20;78.40;;;;;;5028029;28;20422;-75
2022/04/10 12:10:59;;;;;;;5.53;2.50;;;14.40;76.40;;;;;;5027921;28;21007;-76
2022/04/10 12:13:37;;;;;;;3.27;2.97;;;14.70;71.00;;;;;;5028044;28;20471;-75
2022/04/10 12:16:19;;;;;;;3.80;2.70;;;14.60;70.10;;;;;;5010718;28;20441;-75
2022/04/10 12:18:55;;;;;;;5.23;3.40;;;14.20;63.90;;;;;;5010195;28;20825;-75
2022/04/10 12:21:23;;;;;;;6.10;3.20;;;13.40;64.80;;;;;;5028061;28;20568;-75
2022/04/10 12:24:03;;;;;;;6.73;3.57;;;13.60;68.80;;;;;;5028251;28;20423;-74
2022/04/10 12:26:29;;;;;;;4.93;3.30;;;13.50;69.90;;;;;;5028196;28;20449;-75
2022/04/10 12:28:56;;;;;;;4.47;2.57;;;13.70;68.40;;;;;;5028104;28;20453;-75
2022/04/10 12:31:22;;;;;;;6.87;3.23;;;13.40;69.70;;;;;;5028295;28;20754;-74
2022/04/10 12:33:48;;;;;;;4.50;2.73;;;12.80;70.70;;;;;;5010548;28;20433;-75
2022/04/10 12:36:18;;;;;;;3.97;2.70;;;12.30;71.80;;;;;;5028155;28;20980;-73
2022/04/10 12:38:44;;;;;;;3.40;3.10;;;12.00;76.60;;;;;;5028111;28;20418;-73
2022/04/10 12:41:10;;;;;;;6.67;3.10;;;11.80;76.50;;;;;;5011181;28;20483;-72
2022/04/10 12:43:35;;;;;;;3.70;3.40;;;11.50;78.20;;;;;;5028996;28;20194;-74
2022/04/10 12:46:14;;;;;;;3.27;2.97;;;11.30;78.60;;;;;;5012252;28;20212;-74
2022/04/10 12:48:40;;;;;;;8.53;4.13;;;10.90;80.80;;;;;;5031120;28;20183;-74
2022/04/10 12:51:10;;;;;;;4.97;3.43;;;10.60;87.70;;;;;;5031258;28;20423;-75
2022/04/10 12:53:37;;;;;;;4.50;3.90;;;10.20;90.30;;;;;;5012995;28;20199;-73
2022/04/10 12:56:17;;;;;;;5.73;3.57;;;10.00;90.80;;;;;;5030806;28;20473;-73
2022/04/10 12:58:48;;;;;;;4.60;3.60;;;10.30;92.50;;;;;;5030849;28;20839;-73
2022/04/10 13:01:30;;;;;;;5.73;3.10;;;11.20;92.70;;;;;;5030775;28;20544;-75
2022/04/10 13:03:58;;;;;;;4.70;3.07;;;11.60;91.10;;;;;;5031585;28;20434;-75